sensor_id;sensor_type;location;lat;lon;timestamp;pressure;altitude;pressure_sealevel;temperature;humidity
84819;BME280;75053;51.080;13.712;2024-01-06T00:01:50;99246.88;;;7.21;71.89
84819;BME280;75053;51.080;13.712;2024-01-06T00:04:15;99250.28;;;7.21;71.80
84819;BME280;75053;51.080;13.712;2024-01-06T00:06:41;99247.44;;;7.13;72.24
84819;BME280;75053;51.080;13.712;2024-01-06T00:09:07;99240.56;;;7.12;71.99
84819;BME280;75053;51.080;13.712;2024-01-06T00:11:35;99249.53;;;7.08;72.61
84819;BME280;75053;51.080;13.712;2024-01-06T00:14:01;99257.56;;;7.16;71.92
84819;BME280;75053;51.080;13.712;2024-01-06T00:16:26;99250.66;;;7.28;71.57
84819;BME280;75053;51.080;13.712;2024-01-06T00:18:53;99259.59;;;7.24;71.59
84819;BME280;75053;51.080;13.712;2024-01-06T00:21:18;99258.22;;;7.07;71.78
84819;BME280;75053;51.080;13.712;2024-01-06T00:23:46;99256.53;;;6.95;72.67
84819;BME280;75053;51.080;13.712;2024-01-06T00:26:11;99254.97;;;6.93;72.64
84819;BME280;75053;51.080;13.712;2024-01-06T00:28:38;99259.34;;;6.92;72.67
84819;BME280;75053;51.080;13.712;2024-01-06T00:31:07;99251.28;;;6.84;73.57
84819;BME280;75053;51.080;13.712;2024-01-06T00:33:32;99255.19;;;6.90;73.10
84819;BME280;75053;51.080;13.712;2024-01-06T00:35:58;99266.41;;;6.90;73.20
84819;BME280;75053;51.080;13.712;2024-01-06T00:38:23;99277.75;;;7.00;72.99
84819;BME280;75053;51.080;13.712;2024-01-06T00:40:49;99281.31;;;7.10;72.81
84819;BME280;75053;51.080;13.712;2024-01-06T00:43:14;99282.03;;;7.12;72.58
84819;BME280;75053;51.080;13.712;2024-01-06T00:45:39;99285.81;;;7.08;72.65
84819;BME280;75053;51.080;13.712;2024-01-06T00:48:05;99284.59;;;7.01;73.07
84819;BME280;75053;51.080;13.712;2024-01-06T00:50:31;99280.22;;;7.02;72.77
84819;BME280;75053;51.080;13.712;2024-01-06T00:52:56;99286.63;;;7.09;72.89
84819;BME280;75053;51.080;13.712;2024-01-06T00:55:22;99291.09;;;7.07;72.91
84819;BME280;75053;51.080;13.712;2024-01-06T00:57:50;99293.47;;;7.10;72.61
84819;BME280;75053;51.080;13.712;2024-01-06T01:00:15;99290.75;;;7.11;72.22
84819;BME280;75053;51.080;13.712;2024-01-06T01:02:41;99298.03;;;7.06;72.42
84819;BME280;75053;51.080;13.712;2024-01-06T01:05:07;99295.38;;;6.95;72.84
84819;BME280;75053;51.080;13.712;2024-01-06T01:07:33;99295.38;;;6.95;72.84
84819;BME280;75053;51.080;13.712;2024-01-06T01:10:08;99304.09;;;6.94;72.87
84819;BME280;75053;51.080;13.712;2024-01-06T01:12:34;99291.91;;;6.84;72.79
84819;BME280;75053;51.080;13.712;2024-01-06T01:14:59;99301.00;;;6.89;72.79
84819;BME280;75053;51.080;13.712;2024-01-06T01:17:24;99293.56;;;6.85;73.09
84819;BME280;75053;51.080;13.712;2024-01-06T01:19:50;99290.84;;;6.86;73.08
84819;BME280;75053;51.080;13.712;2024-01-06T01:22:15;99284.66;;;6.76;73.46
84819;BME280;75053;51.080;13.712;2024-01-06T01:24:42;99289.41;;;6.82;73.43
84819;BME280;75053;51.080;13.712;2024-01-06T01:27:08;99292.34;;;6.78;73.61
84819;BME280;75053;51.080;13.712;2024-01-06T01:29:33;99288.00;;;6.78;74.01
84819;BME280;75053;51.080;13.712;2024-01-06T01:31:59;99291.16;;;6.82;73.83
84819;BME280;75053;51.080;13.712;2024-01-06T01:34:24;99300.72;;;6.81;73.75
84819;BME280;75053;51.080;13.712;2024-01-06T01:36:50;99291.25;;;6.93;73.02
84819;BME280;75053;51.080;13.712;2024-01-06T01:39:17;99296.81;;;6.99;72.83
84819;BME280;75053;51.080;13.712;2024-01-06T01:41:42;99299.94;;;6.92;72.58
84819;BME280;75053;51.080;13.712;2024-01-06T01:44:08;99296.47;;;6.80;71.98
84819;BME280;75053;51.080;13.712;2024-01-06T01:46:33;99305.38;;;6.76;71.64
84819;BME280;75053;51.080;13.712;2024-01-06T01:49:01;99296.88;;;6.74;71.70
84819;BME280;75053;51.080;13.712;2024-01-06T01:54:33;99300.03;;;6.67;72.22
84819;BME280;75053;51.080;13.712;2024-01-06T01:56:59;99300.34;;;6.63;72.42
84819;BME280;75053;51.080;13.712;2024-01-06T01:59:25;99297.44;;;6.67;72.44
84819;BME280;75053;51.080;13.712;2024-01-06T02:01:51;99297.44;;;6.67;72.14
84819;BME280;75053;51.080;13.712;2024-01-06T02:04:16;99296.94;;;6.62;71.78
84819;BME280;75053;51.080;13.712;2024-01-06T02:06:42;99294.66;;;6.58;71.52
84819;BME280;75053;51.080;13.712;2024-01-06T02:09:07;99293.53;;;6.49;71.85
84819;BME280;75053;51.080;13.712;2024-01-06T02:11:33;99300.69;;;6.46;71.65
84819;BME280;75053;51.080;13.712;2024-01-06T02:13:58;99312.28;;;6.40;71.79
84819;BME280;75053;51.080;13.712;2024-01-06T02:16:24;99308.44;;;6.33;71.80
84819;BME280;75053;51.080;13.712;2024-01-06T02:18:49;99310.84;;;6.24;71.76
84819;BME280;75053;51.080;13.712;2024-01-06T02:21:15;99306.69;;;6.21;72.14
84819;BME280;75053;51.080;13.712;2024-01-06T02:23:41;99309.41;;;6.20;71.54
84819;BME280;75053;51.080;13.712;2024-01-06T02:26:06;99304.84;;;6.11;71.40
84819;BME280;75053;51.080;13.712;2024-01-06T02:28:32;99297.59;;;6.03;71.80
84819;BME280;75053;51.080;13.712;2024-01-06T02:30:57;99302.66;;;5.92;71.59
84819;BME280;75053;51.080;13.712;2024-01-06T02:33:23;99310.63;;;5.89;71.97
84819;BME280;75053;51.080;13.712;2024-01-06T02:35:49;99311.44;;;5.90;71.62
84819;BME280;75053;51.080;13.712;2024-01-06T02:38:15;99313.31;;;5.88;71.86
84819;BME280;75053;51.080;13.712;2024-01-06T02:40:40;99308.53;;;5.82;72.39
84819;BME280;75053;51.080;13.712;2024-01-06T02:43:06;99311.50;;;5.76;72.69
84819;BME280;75053;51.080;13.712;2024-01-06T02:45:34;99304.97;;;5.70;72.42
84819;BME280;75053;51.080;13.712;2024-01-06T02:47:59;99308.50;;;5.69;72.95
84819;BME280;75053;51.080;13.712;2024-01-06T02:50:24;99301.69;;;5.68;72.61
84819;BME280;75053;51.080;13.712;2024-01-06T02:52:51;99310.06;;;5.72;72.39
84819;BME280;75053;51.080;13.712;2024-01-06T02:55:16;99319.06;;;5.66;72.73
84819;BME280;75053;51.080;13.712;2024-01-06T02:57:42;99325.38;;;5.75;72.62
84819;BME280;75053;51.080;13.712;2024-01-06T03:00:08;99327.75;;;5.78;73.32
84819;BME280;75053;51.080;13.712;2024-01-06T03:02:33;99323.00;;;5.72;72.76
84819;BME280;75053;51.080;13.712;2024-01-06T03:05:01;99323.59;;;5.63;72.63
84819;BME280;75053;51.080;13.712;2024-01-06T03:07:28;99316.34;;;5.68;72.07
84819;BME280;75053;51.080;13.712;2024-01-06T03:09:53;99334.00;;;5.49;72.33
84819;BME280;75053;51.080;13.712;2024-01-06T03:12:19;99329.13;;;5.57;72.84
84819;BME280;75053;51.080;13.712;2024-01-06T03:14:44;99339.25;;;5.47;73.22
84819;BME280;75053;51.080;13.712;2024-01-06T03:17:10;99335.25;;;5.56;72.86
84819;BME280;75053;51.080;13.712;2024-01-06T03:19:39;99333.50;;;5.56;72.68
84819;BME280;75053;51.080;13.712;2024-01-06T03:22:04;99337.19;;;5.52;72.49
84819;BME280;75053;51.080;13.712;2024-01-06T03:24:30;99343.19;;;5.53;72.35
84819;BME280;75053;51.080;13.712;2024-01-06T03:26:56;99339.25;;;5.47;72.69
84819;BME280;75053;51.080;13.712;2024-01-06T03:29:24;99330.22;;;5.40;73.17
84819;BME280;75053;51.080;13.712;2024-01-06T03:31:49;99334.16;;;5.46;72.78
84819;BME280;75053;51.080;13.712;2024-01-06T03:34:15;99339.03;;;5.50;72.27
84819;BME280;75053;51.080;13.712;2024-01-06T03:36:40;99345.25;;;5.48;72.21
84819;BME280;75053;51.080;13.712;2024-01-06T03:39:06;99349.88;;;5.43;72.71
84819;BME280;75053;51.080;13.712;2024-01-06T03:41:32;99344.41;;;5.35;72.91
84819;BME280;75053;51.080;13.712;2024-01-06T03:43:58;99344.56;;;5.32;72.99
84819;BME280;75053;51.080;13.712;2024-01-06T03:46:24;99339.03;;;5.38;72.57
84819;BME280;75053;51.080;13.712;2024-01-06T03:48:49;99342.91;;;5.31;72.80
84819;BME280;75053;51.080;13.712;2024-01-06T03:51:15;99344.78;;;5.29;72.28
84819;BME280;75053;51.080;13.712;2024-01-06T03:53:41;99347.63;;;5.24;72.62
84819;BME280;75053;51.080;13.712;2024-01-06T03:56:09;99352.16;;;5.21;73.22
84819;BME280;75053;51.080;13.712;2024-01-06T03:58:34;99355.88;;;5.17;73.39
84819;BME280;75053;51.080;13.712;2024-01-06T04:01:00;99353.66;;;5.25;73.16
84819;BME280;75053;51.080;13.712;2024-01-06T04:03:26;99351.56;;;5.17;73.46
84819;BME280;75053;51.080;13.712;2024-01-06T04:05:53;99358.69;;;5.00;73.29
84819;BME280;75053;51.080;13.712;2024-01-06T04:08:18;99335.78;;;5.08;72.83
84819;BME280;75053;51.080;13.712;2024-01-06T04:10:44;99350.19;;;5.12;72.65
84819;BME280;75053;51.080;13.712;2024-01-06T04:13:11;99349.63;;;5.07;72.54
84819;BME280;75053;51.080;13.712;2024-01-06T04:15:37;99355.19;;;5.01;73.00
84819;BME280;75053;51.080;13.712;2024-01-06T04:18:03;99360.16;;;5.04;72.59
84819;BME280;75053;51.080;13.712;2024-01-06T04:20:30;99363.25;;;5.09;72.51
84819;BME280;75053;51.080;13.712;2024-01-06T04:22:55;99362.19;;;5.13;72.18
84819;BME280;75053;51.080;13.712;2024-01-06T04:25:21;99356.66;;;5.05;71.99
84819;BME280;75053;51.080;13.712;2024-01-06T04:30:31;99355.19;;;5.01;72.34
84819;BME280;75053;51.080;13.712;2024-01-06T04:32:57;99359.25;;;4.91;72.63
84819;BME280;75053;51.080;13.712;2024-01-06T04:35:24;99357.97;;;4.84;72.90
84819;BME280;75053;51.080;13.712;2024-01-06T04:37:49;99360.91;;;4.92;72.66
84819;BME280;75053;51.080;13.712;2024-01-06T04:40:14;99355.56;;;4.95;72.34
84819;BME280;75053;51.080;13.712;2024-01-06T04:42:40;99363.41;;;4.93;72.20
84819;BME280;75053;51.080;13.712;2024-01-06T04:45:06;99366.09;;;4.92;72.33
84819;BME280;75053;51.080;13.712;2024-01-06T04:47:32;99371.81;;;4.83;72.94
84819;BME280;75053;51.080;13.712;2024-01-06T04:49:57;99369.78;;;4.88;73.23
84819;BME280;75053;51.080;13.712;2024-01-06T04:52:23;99372.91;;;4.93;72.32
84819;BME280;75053;51.080;13.712;2024-01-06T04:54:48;99373.09;;;4.90;72.31
84819;BME280;75053;51.080;13.712;2024-01-06T04:57:14;99367.94;;;4.90;72.52
84819;BME280;75053;51.080;13.712;2024-01-06T04:59:41;99375.31;;;4.82;73.13
84819;BME280;75053;51.080;13.712;2024-01-06T05:02:07;99378.44;;;4.87;73.08
84819;BME280;75053;51.080;13.712;2024-01-06T05:04:32;99369.91;;;4.99;73.09
84819;BME280;75053;51.080;13.712;2024-01-06T05:06:58;99375.56;;;5.05;72.72
84819;BME280;75053;51.080;13.712;2024-01-06T05:09:24;99374.38;;;5.11;72.06
84819;BME280;75053;51.080;13.712;2024-01-06T05:11:50;99386.69;;;5.20;72.21
84819;BME280;75053;51.080;13.712;2024-01-06T05:14:15;99384.66;;;5.25;71.65
84819;BME280;75053;51.080;13.712;2024-01-06T05:16:42;99378.06;;;5.33;71.88
84819;BME280;75053;51.080;13.712;2024-01-06T05:19:08;99385.41;;;5.39;71.50
84819;BME280;75053;51.080;13.712;2024-01-06T05:21:34;99385.69;;;5.49;71.26
84819;BME280;75053;51.080;13.712;2024-01-06T05:24:00;99387.22;;;5.51;71.19
84819;BME280;75053;51.080;13.712;2024-01-06T05:26:25;99382.69;;;5.55;71.25
84819;BME280;75053;51.080;13.712;2024-01-06T05:28:52;99391.38;;;5.54;71.88
84819;BME280;75053;51.080;13.712;2024-01-06T05:31:18;99392.41;;;5.51;71.76
84819;BME280;75053;51.080;13.712;2024-01-06T05:33:43;99389.09;;;5.49;71.92
84819;BME280;75053;51.080;13.712;2024-01-06T05:36:09;99394.25;;;5.49;72.08
84819;BME280;75053;51.080;13.712;2024-01-06T05:38:44;99401.50;;;5.57;72.29
84819;BME280;75053;51.080;13.712;2024-01-06T05:41:09;99405.59;;;5.61;71.69
84819;BME280;75053;51.080;13.712;2024-01-06T05:43:35;99405.91;;;5.69;71.65
84819;BME280;75053;51.080;13.712;2024-01-06T05:46:00;99403.72;;;5.63;72.34
84819;BME280;75053;51.080;13.712;2024-01-06T05:48:26;99415.19;;;5.59;71.95
84819;BME280;75053;51.080;13.712;2024-01-06T05:50:51;99405.91;;;5.69;71.70
84819;BME280;75053;51.080;13.712;2024-01-06T05:53:16;99410.50;;;5.78;71.63
84819;BME280;75053;51.080;13.712;2024-01-06T05:55:43;99417.34;;;5.79;71.54
84819;BME280;75053;51.080;13.712;2024-01-06T05:58:09;99425.44;;;5.87;71.42
84819;BME280;75053;51.080;13.712;2024-01-06T06:00:34;99432.91;;;5.91;71.46
84819;BME280;75053;51.080;13.712;2024-01-06T06:03:00;99432.00;;;5.92;70.76
84819;BME280;75053;51.080;13.712;2024-01-06T06:05:25;99429.97;;;6.10;70.62
84819;BME280;75053;51.080;13.712;2024-01-06T06:07:52;99441.75;;;6.14;70.57
84819;BME280;75053;51.080;13.712;2024-01-06T06:10:18;99440.44;;;6.21;70.56
84819;BME280;75053;51.080;13.712;2024-01-06T06:12:46;99450.44;;;6.13;70.89
84819;BME280;75053;51.080;13.712;2024-01-06T06:15:12;99449.94;;;6.08;70.47
84819;BME280;75053;51.080;13.712;2024-01-06T06:17:39;99457.19;;;6.15;70.15
84819;BME280;75053;51.080;13.712;2024-01-06T06:20:04;99460.41;;;6.19;70.38
84819;BME280;75053;51.080;13.712;2024-01-06T06:22:32;99461.16;;;6.21;70.17
84819;BME280;75053;51.080;13.712;2024-01-06T06:24:58;99464.25;;;6.26;70.50
84819;BME280;75053;51.080;13.712;2024-01-06T06:27:24;99459.63;;;6.31;70.26
84819;BME280;75053;51.080;13.712;2024-01-06T06:29:49;99461.88;;;6.35;69.77
84819;BME280;75053;51.080;13.712;2024-01-06T06:32:15;99465.69;;;6.30;69.83
84819;BME280;75053;51.080;13.712;2024-01-06T06:34:40;99465.22;;;6.37;69.68
84819;BME280;75053;51.080;13.712;2024-01-06T06:37:06;99468.19;;;6.31;70.25
84819;BME280;75053;51.080;13.712;2024-01-06T06:39:33;99471.91;;;6.27;70.64
84819;BME280;75053;51.080;13.712;2024-01-06T06:42:00;99481.03;;;6.33;70.30
84819;BME280;75053;51.080;13.712;2024-01-06T06:44:26;99483.13;;;6.40;70.33
84819;BME280;75053;51.080;13.712;2024-01-06T06:46:52;99483.56;;;6.47;70.20
84819;BME280;75053;51.080;13.712;2024-01-06T06:49:17;99500.53;;;6.51;69.75
84819;BME280;75053;51.080;13.712;2024-01-06T06:51:43;99495.34;;;6.51;69.78
84819;BME280;75053;51.080;13.712;2024-01-06T06:54:13;99502.00;;;6.55;69.72
84819;BME280;75053;51.080;13.712;2024-01-06T06:56:39;99505.84;;;6.62;69.50
84819;BME280;75053;51.080;13.712;2024-01-06T06:59:05;99506.69;;;6.62;69.65
84819;BME280;75053;51.080;13.712;2024-01-06T07:01:30;99503.97;;;6.63;69.78
84819;BME280;75053;51.080;13.712;2024-01-06T07:04:02;99513.81;;;6.59;70.28
84819;BME280;75053;51.080;13.712;2024-01-06T07:06:28;99517.94;;;6.49;70.08
84819;BME280;75053;51.080;13.712;2024-01-06T07:08:54;99510.38;;;6.46;70.22
84819;BME280;75053;51.080;13.712;2024-01-06T07:11:20;99513.09;;;6.57;69.92
84819;BME280;75053;51.080;13.712;2024-01-06T07:13:45;99524.16;;;6.59;69.89
84819;BME280;75053;51.080;13.712;2024-01-06T07:16:10;99531.00;;;6.60;69.98
84819;BME280;75053;51.080;13.712;2024-01-06T07:18:37;99528.63;;;6.57;70.40
84819;BME280;75053;51.080;13.712;2024-01-06T07:21:04;99528.94;;;6.64;70.39
84819;BME280;75053;51.080;13.712;2024-01-06T07:23:31;99528.94;;;6.64;70.01
84819;BME280;75053;51.080;13.712;2024-01-06T07:25:57;99532.16;;;6.68;69.91
84819;BME280;75053;51.080;13.712;2024-01-06T07:28:23;99543.84;;;6.61;69.62
84819;BME280;75053;51.080;13.712;2024-01-06T07:30:48;99543.22;;;6.58;70.17
84819;BME280;75053;51.080;13.712;2024-01-06T07:33:14;99547.06;;;6.64;70.36
84819;BME280;75053;51.080;13.712;2024-01-06T07:35:39;99551.34;;;6.66;70.03
84819;BME280;75053;51.080;13.712;2024-01-06T07:38:11;99548.41;;;6.70;70.10
84819;BME280;75053;51.080;13.712;2024-01-06T07:40:37;99552.34;;;6.75;70.15
84819;BME280;75053;51.080;13.712;2024-01-06T07:43:02;99560.16;;;6.88;69.66
84819;BME280;75053;51.080;13.712;2024-01-06T07:45:30;99552.91;;;6.80;70.04
84819;BME280;75053;51.080;13.712;2024-01-06T07:47:55;99545.66;;;6.85;69.63
84819;BME280;75053;51.080;13.712;2024-01-06T07:50:21;99556.97;;;6.97;69.18
84819;BME280;75053;51.080;13.712;2024-01-06T07:52:46;99551.78;;;6.97;69.52
84819;BME280;75053;51.080;13.712;2024-01-06T07:55:11;99552.19;;;7.03;69.17
84819;BME280;75053;51.080;13.712;2024-01-06T07:57:37;99555.28;;;7.08;69.23
84819;BME280;75053;51.080;13.712;2024-01-06T08:00:03;99554.59;;;7.19;69.00
84819;BME280;75053;51.080;13.712;2024-01-06T08:02:28;99556.34;;;7.18;68.84
84819;BME280;75053;51.080;13.712;2024-01-06T08:04:53;99571.69;;;7.21;68.92
84819;BME280;75053;51.080;13.712;2024-01-06T08:07:21;99562.56;;;7.16;68.64
84819;BME280;75053;51.080;13.712;2024-01-06T08:09:46;99567.34;;;7.22;68.89
84819;BME280;75053;51.080;13.712;2024-01-06T08:12:12;99578.75;;;7.32;68.44
84819;BME280;75053;51.080;13.712;2024-01-06T08:14:37;99576.88;;;7.34;68.25
84819;BME280;75053;51.080;13.712;2024-01-06T08:17:03;99579.84;;;7.53;67.99
84819;BME280;75053;51.080;13.712;2024-01-06T08:19:29;99583.06;;;7.56;68.17
84819;BME280;75053;51.080;13.712;2024-01-06T08:21:56;99588.25;;;7.69;67.58
84819;BME280;75053;51.080;13.712;2024-01-06T08:24:22;99590.94;;;7.67;67.97
84819;BME280;75053;51.080;13.712;2024-01-06T08:26:47;99595.91;;;7.70;67.85
84819;BME280;75053;51.080;13.712;2024-01-06T08:29:25;99598.72;;;7.80;67.45
84819;BME280;75053;51.080;13.712;2024-01-06T08:31:50;99590.81;;;7.81;67.82
84819;BME280;75053;51.080;13.712;2024-01-06T08:34:17;99594.66;;;7.88;68.83
84819;BME280;75053;51.080;13.712;2024-01-06T08:36:43;99594.19;;;7.94;68.66
84819;BME280;75053;51.080;13.712;2024-01-06T08:39:09;99598.34;;;8.09;68.42
84819;BME280;75053;51.080;13.712;2024-01-06T08:41:35;99609.22;;;8.14;68.78
84819;BME280;75053;51.080;13.712;2024-01-06T08:44:00;99616.69;;;8.06;68.30
84819;BME280;75053;51.080;13.712;2024-01-06T08:46:25;99614.94;;;8.07;67.99
84819;BME280;75053;51.080;13.712;2024-01-06T08:48:51;99612.25;;;8.08;67.89
84819;BME280;75053;51.080;13.712;2024-01-06T08:51:16;99626.13;;;8.07;67.66
84819;BME280;75053;51.080;13.712;2024-01-06T08:53:42;99620.03;;;8.08;68.32
84819;BME280;75053;51.080;13.712;2024-01-06T08:56:08;99621.97;;;8.17;68.13
84819;BME280;75053;51.080;13.712;2024-01-06T08:58:34;99622.63;;;8.21;67.92
84819;BME280;75053;51.080;13.712;2024-01-06T09:00:59;99627.00;;;8.20;68.06
84819;BME280;75053;51.080;13.712;2024-01-06T09:03:25;99631.66;;;8.28;68.13
84819;BME280;75053;51.080;13.712;2024-01-06T09:05:55;99641.25;;;8.38;68.17
84819;BME280;75053;51.080;13.712;2024-01-06T09:08:21;99632.91;;;8.46;68.01
84819;BME280;75053;51.080;13.712;2024-01-06T09:10:50;99635.16;;;8.63;67.46
84819;BME280;75053;51.080;13.712;2024-01-06T09:13:23;99646.88;;;8.79;66.66
84819;BME280;75053;51.080;13.712;2024-01-06T09:15:52;99642.69;;;8.89;66.04
84819;BME280;75053;51.080;13.712;2024-01-06T09:18:18;99651.44;;;8.88;65.96
84819;BME280;75053;51.080;13.712;2024-01-06T09:20:43;99650.53;;;9.00;66.22
84819;BME280;75053;51.080;13.712;2024-01-06T09:23:09;99650.94;;;9.17;65.69
84819;BME280;75053;51.080;13.712;2024-01-06T09:25:35;99654.16;;;9.21;65.65
84819;BME280;75053;51.080;13.712;2024-01-06T09:28:01;99655.59;;;9.36;65.05
84819;BME280;75053;51.080;13.712;2024-01-06T09:30:26;99653.94;;;9.35;64.86
84819;BME280;75053;51.080;13.712;2024-01-06T09:32:52;99661.44;;;9.50;64.63
84819;BME280;75053;51.080;13.712;2024-01-06T09:35:18;99658.00;;;9.61;64.42
84819;BME280;75053;51.080;13.712;2024-01-06T09:37:43;99661.31;;;9.52;64.64
84819;BME280;75053;51.080;13.712;2024-01-06T09:40:12;99674.13;;;9.66;64.27
84819;BME280;75053;51.080;13.712;2024-01-06T09:42:41;99661.59;;;9.82;63.79
84819;BME280;75053;51.080;13.712;2024-01-06T09:45:07;99658.53;;;9.77;64.51
84819;BME280;75053;51.080;13.712;2024-01-06T09:47:34;99667.72;;;9.70;63.93
84819;BME280;75053;51.080;13.712;2024-01-06T09:50:03;99669.25;;;9.61;63.69
84819;BME280;75053;51.080;13.712;2024-01-06T09:52:32;99667.25;;;9.54;63.71
84819;BME280;75053;51.080;13.712;2024-01-06T09:55:05;99657.28;;;9.48;64.08
84819;BME280;75053;51.080;13.712;2024-01-06T09:57:35;99657.53;;;9.45;63.99
84819;BME280;75053;51.080;13.712;2024-01-06T10:00:01;99662.97;;;9.53;63.47
84819;BME280;75053;51.080;13.712;2024-01-06T10:02:26;99655.63;;;9.47;63.98
84819;BME280;75053;51.080;13.712;2024-01-06T10:04:53;99665.25;;;9.57;63.67
84819;BME280;75053;51.080;13.712;2024-01-06T10:07:18;99660.63;;;9.72;63.51
84819;BME280;75053;51.080;13.712;2024-01-06T10:09:50;99655.41;;;9.72;63.82
84819;BME280;75053;51.080;13.712;2024-01-06T10:12:25;99651.31;;;9.80;63.20
84819;BME280;75053;51.080;13.712;2024-01-06T10:14:57;99653.41;;;9.86;63.16
84819;BME280;75053;51.080;13.712;2024-01-06T10:17:22;99658.03;;;9.94;63.09
84819;BME280;75053;51.080;13.712;2024-01-06T10:19:58;99653.53;;;9.96;63.26
84819;BME280;75053;51.080;13.712;2024-01-06T10:22:57;99655.13;;;10.09;62.71
84819;BME280;75053;51.080;13.712;2024-01-06T10:25:29;99654.06;;;10.12;62.46
84819;BME280;75053;51.080;13.712;2024-01-06T10:28:00;99650.50;;;10.13;62.73
84819;BME280;75053;51.080;13.712;2024-01-06T10:30:29;99652.75;;;10.17;62.16
84819;BME280;75053;51.080;13.712;2024-01-06T10:32:58;99659.00;;;10.15;61.97
84819;BME280;75053;51.080;13.712;2024-01-06T10:35:43;99651.44;;;10.23;62.33
84819;BME280;75053;51.080;13.712;2024-01-06T10:38:10;99645.72;;;10.29;62.26
84819;BME280;75053;51.080;13.712;2024-01-06T10:40:35;99649.03;;;10.31;62.31
84819;BME280;75053;51.080;13.712;2024-01-06T10:43:02;99649.28;;;10.28;62.19
84819;BME280;75053;51.080;13.712;2024-01-06T10:45:28;99651.88;;;10.39;61.96
84819;BME280;75053;51.080;13.712;2024-01-06T10:47:57;99645.09;;;10.47;61.41
84819;BME280;75053;51.080;13.712;2024-01-06T10:50:29;99639.00;;;10.69;61.14
84819;BME280;75053;51.080;13.712;2024-01-06T10:52:56;99644.63;;;10.85;60.85
84819;BME280;75053;51.080;13.712;2024-01-06T10:55:24;99645.78;;;10.92;59.98
84819;BME280;75053;51.080;13.712;2024-01-06T10:57:57;99643.91;;;10.94;60.55
84819;BME280;75053;51.080;13.712;2024-01-06T11:00:23;99647.69;;;10.90;60.06
84819;BME280;75053;51.080;13.712;2024-01-06T11:02:49;99646.50;;;10.94;60.04
84819;BME280;75053;51.080;13.712;2024-01-06T11:05:18;99649.19;;;11.03;59.95
84819;BME280;75053;51.080;13.712;2024-01-06T11:07:46;99650.50;;;10.98;60.06
84819;BME280;75053;51.080;13.712;2024-01-06T11:10:16;99646.44;;;11.05;59.43
84819;BME280;75053;51.080;13.712;2024-01-06T11:12:43;99650.63;;;11.17;59.17
84819;BME280;75053;51.080;13.712;2024-01-06T11:15:52;99650.72;;;11.26;58.51
84819;BME280;75053;51.080;13.712;2024-01-06T11:18:40;99651.84;;;11.13;58.30
84819;BME280;75053;51.080;13.712;2024-01-06T11:23:40;99659.63;;;11.03;58.35
84819;BME280;75053;51.080;13.712;2024-01-06T11:26:08;99663.25;;;11.12;58.80
84819;BME280;75053;51.080;13.712;2024-01-06T11:28:49;99658.34;;;11.18;58.13
84819;BME280;75053;51.080;13.712;2024-01-06T11:31:20;99660.84;;;11.20;58.12
84819;BME280;75053;51.080;13.712;2024-01-06T11:33:46;99661.59;;;11.11;58.63
84819;BME280;75053;51.080;13.712;2024-01-06T11:36:15;99663.19;;;11.02;58.64
84819;BME280;75053;51.080;13.712;2024-01-06T11:38:40;99664.06;;;10.81;58.87
84819;BME280;75053;51.080;13.712;2024-01-06T11:41:07;99669.69;;;10.76;59.70
84819;BME280;75053;51.080;13.712;2024-01-06T11:43:34;99675.78;;;10.44;60.44
84819;BME280;75053;51.080;13.712;2024-01-06T11:46:04;99671.53;;;10.32;61.16
84819;BME280;75053;51.080;13.712;2024-01-06T11:48:32;99669.66;;;10.34;61.13
84819;BME280;75053;51.080;13.712;2024-01-06T11:50:58;99667.16;;;10.32;61.09
84819;BME280;75053;51.080;13.712;2024-01-06T11:53:26;99667.28;;;10.09;62.05
84819;BME280;75053;51.080;13.712;2024-01-06T11:55:52;99664.47;;;10.12;62.18
84819;BME280;75053;51.080;13.712;2024-01-06T11:58:17;99661.63;;;10.15;62.19
84819;BME280;75053;51.080;13.712;2024-01-06T12:00:43;99665.03;;;10.26;61.99
84819;BME280;75053;51.080;13.712;2024-01-06T12:03:09;99667.63;;;10.26;62.02
84819;BME280;75053;51.080;13.712;2024-01-06T12:05:35;99663.38;;;10.14;62.32
84819;BME280;75053;51.080;13.712;2024-01-06T12:08:02;99665.28;;;10.12;62.26
84819;BME280;75053;51.080;13.712;2024-01-06T12:10:31;99668.84;;;10.22;62.31
84819;BME280;75053;51.080;13.712;2024-01-06T12:15:25;99672.03;;;10.04;62.65
84819;BME280;75053;51.080;13.712;2024-01-06T12:17:50;99669.53;;;10.02;62.97
84819;BME280;75053;51.080;13.712;2024-01-06T12:20:17;99672.94;;;9.92;63.39
84819;BME280;75053;51.080;13.712;2024-01-06T12:22:43;99682.16;;;9.85;63.67
84819;BME280;75053;51.080;13.712;2024-01-06T12:25:10;99688.88;;;9.65;63.64
84819;BME280;75053;51.080;13.712;2024-01-06T12:27:35;99684.13;;;9.48;64.70
84819;BME280;75053;51.080;13.712;2024-01-06T12:30:01;99689.22;;;9.50;64.50
84819;BME280;75053;51.080;13.712;2024-01-06T12:32:28;99691.22;;;9.46;64.77
84819;BME280;75053;51.080;13.712;2024-01-06T12:34:54;99691.50;;;9.65;64.63
84819;BME280;75053;51.080;13.712;2024-01-06T12:37:22;99698.72;;;9.73;64.25
84819;BME280;75053;51.080;13.712;2024-01-06T12:39:48;99689.25;;;9.72;64.34
84819;BME280;75053;51.080;13.712;2024-01-06T12:42:15;99690.19;;;9.71;64.10
84819;BME280;75053;51.080;13.712;2024-01-06T12:44:41;99692.09;;;9.69;64.29
84819;BME280;75053;51.080;13.712;2024-01-06T12:47:08;99685.69;;;9.62;63.88
84819;BME280;75053;51.080;13.712;2024-01-06T12:49:33;99694.22;;;9.64;63.80
84819;BME280;75053;51.080;13.712;2024-01-06T12:51:59;99686.44;;;9.64;63.46
84819;BME280;75053;51.080;13.712;2024-01-06T12:54:24;99693.25;;;9.54;63.85
84819;BME280;75053;51.080;13.712;2024-01-06T12:56:52;99702.81;;;9.53;63.34
84819;BME280;75053;51.080;13.712;2024-01-06T12:59:17;99693.69;;;9.48;63.52
84819;BME280;75053;51.080;13.712;2024-01-06T13:01:44;99694.84;;;9.33;63.57
84819;BME280;75053;51.080;13.712;2024-01-06T13:04:09;99700.97;;;9.21;63.81
84819;BME280;75053;51.080;13.712;2024-01-06T13:06:35;99705.44;;;9.19;64.15